Address 0x4740a4c1228dde8bd91017c6341953cdbabf18b5 1

 
 
Txn Hash Method
Block
From
To
Value [Txn Fee]
0x316f6e220bc1b972c9d13e39115c56fba15de0e380cd899992fec97bd03f0c7d0x672d8f42118764522021-10-18 9:45:031 hr 52 mins ago0x4740a4c1228dde8bd91017c6341953cdbabf18b5OUT 0x000859bf6357a8b09d3ed3797284831492c9d6470 BNB0.000479285
0x57799f90925abdd07f3d20169064d4c320dbda85e08f7784d27e5cb86e34fd240x672d8f42118764382021-10-18 9:44:211 hr 53 mins ago0x4740a4c1228dde8bd91017c6341953cdbabf18b5OUT 0x000859bf6357a8b09d3ed3797284831492c9d6470 BNB0.000480235
0x8c0beb69b59b54ec94c2de9d70fb1cf2c6feb80587d5edd6c1157359de67d8580x672d8f42118764272021-10-18 9:43:481 hr 53 mins ago0x4740a4c1228dde8bd91017c6341953cdbabf18b5OUT 0x000859bf6357a8b09d3ed3797284831492c9d6470 BNB0.00047868
0x5f3272d2ed2bde48df2dd86051d69fdf367b09a628bd4465c5c4fac442909c970x672d8f42118763822021-10-18 9:41:331 hr 55 mins ago0x4740a4c1228dde8bd91017c6341953cdbabf18b5OUT 0x000859bf6357a8b09d3ed3797284831492c9d6470 BNB0.000330345
0x11392ef17bd0ccf89926c608819bb4404db2275623a5bf2a5127a288bc2bafa80x672d8f42118763762021-10-18 9:41:151 hr 56 mins ago0x4740a4c1228dde8bd91017c6341953cdbabf18b5OUT 0x000859bf6357a8b09d3ed3797284831492c9d6470 BNB0.00047868
0xf1f6843f66086cdcbfefed8765dcccb0765d274fd003fe99052bdaa2dc651fff0x672d8f42118763652021-10-18 9:40:421 hr 56 mins ago0x4740a4c1228dde8bd91017c6341953cdbabf18b5OUT 0x000859bf6357a8b09d3ed3797284831492c9d6470 BNB0.00047867
0xbff2304b58a2024e15db00c8b0472496cc9406ff836286813e78cda279dbec6a0x672d8f42118763552021-10-18 9:40:121 hr 57 mins ago0x4740a4c1228dde8bd91017c6341953cdbabf18b5OUT 0x000859bf6357a8b09d3ed3797284831492c9d6470 BNB0.00033222
0xb62258c6f8535385601fd1d723d5a5c40410c2dbcc0391e81d4fcd106c5cadf40x672d8f42118763432021-10-18 9:39:361 hr 57 mins ago0x4740a4c1228dde8bd91017c6341953cdbabf18b5OUT 0x000859bf6357a8b09d3ed3797284831492c9d6470 BNB0.000331615
0x2b6e758bb5eca8bb5cf96abf642602df18df921dae45baa1436e4cbea9929eb70x672d8f42118763312021-10-18 9:39:001 hr 58 mins ago0x4740a4c1228dde8bd91017c6341953cdbabf18b5OUT 0x000859bf6357a8b09d3ed3797284831492c9d6470 BNB0.00050706
0x76409e9ae971a896dd594efd37980961c2ba1f7d1f4e6acd76bcc5499f83c4b40x672d8f42118763222021-10-18 9:38:331 hr 58 mins ago0x4740a4c1228dde8bd91017c6341953cdbabf18b5OUT 0x000859bf6357a8b09d3ed3797284831492c9d6470 BNB0.00050808
0x4df478fcaaab6c6ce68d7f7ad1fd057b57a9b0f1bb547b3beea1c7a980b1b2140x672d8f42118763112021-10-18 9:38:001 hr 59 mins ago0x4740a4c1228dde8bd91017c6341953cdbabf18b5OUT 0x000859bf6357a8b09d3ed3797284831492c9d6470 BNB0.00047848
0x17c9d72c9d22e5892cdeffbdb5b554d956607f40300203ea8c8a0894245a28490x672d8f42118762972021-10-18 9:37:182 hrs ago0x4740a4c1228dde8bd91017c6341953cdbabf18b5OUT 0x000859bf6357a8b09d3ed3797284831492c9d6470 BNB0.000479075
0xd6eb1d4d24071c7ac6d658d3a6293ae6cd6df1171b803bcf1fd219ecac2930480x672d8f42118662832021-10-18 1:16:2810 hrs 20 mins ago0x4740a4c1228dde8bd91017c6341953cdbabf18b5OUT 0x000859bf6357a8b09d3ed3797284831492c9d6470 BNB0.00033101
0xaa72d29f59401a23685c13d796a0014b126ba73fd1ddd757b93127b86fce02300x672d8f42118662742021-10-18 1:16:0110 hrs 21 mins ago0x4740a4c1228dde8bd91017c6341953cdbabf18b5OUT 0x000859bf6357a8b09d3ed3797284831492c9d6470 BNB0.000480295
0x93658e86330dc42bf08d162982f947a1b334fb47c4b2a216d83ec13ebe7f5d9d0x672d8f42118662642021-10-18 1:15:3110 hrs 21 mins ago0x4740a4c1228dde8bd91017c6341953cdbabf18b5OUT 0x000859bf6357a8b09d3ed3797284831492c9d6470 BNB0.00047747
0xea3d250473a3e71dffa8eeae704f23a71883164dd3aa7520003337e330b299f70x672d8f42118638482021-10-17 23:13:2612 hrs 24 mins ago0x4740a4c1228dde8bd91017c6341953cdbabf18b5OUT 0x000859bf6357a8b09d3ed3797284831492c9d6470 BNB0.000507615
0xd29afdf1d7d2ee667f576b24001c48b95b92b82f4a66c2d7425b88958312b25c0x672d8f42118638412021-10-17 23:13:0512 hrs 24 mins ago0x4740a4c1228dde8bd91017c6341953cdbabf18b5OUT 0x000859bf6357a8b09d3ed3797284831492c9d6470 BNB0.000479285
0xf7ecb7297df2eaca8906e570e6809edee3e6ffa2049fd0c61efa4c766252bf8c0x672d8f42118638332021-10-17 23:12:4112 hrs 24 mins ago0x4740a4c1228dde8bd91017c6341953cdbabf18b5OUT 0x000859bf6357a8b09d3ed3797284831492c9d6470 BNB0.000332625
0x85129ee307925a0e3dee4a1abb62b8ed6fe041e80a8b7ddc23c184cbf6acbc620x672d8f42118614502021-10-17 21:12:1714 hrs 25 mins ago0x4740a4c1228dde8bd91017c6341953cdbabf18b5OUT 0x000859bf6357a8b09d3ed3797284831492c9d6470 BNB0.00047747
0x06903a4d2ddac481aa3144523396ac51c30a38909ff87b040157f7cfd75a62630x672d8f42118614402021-10-17 21:11:4714 hrs 25 mins ago0x4740a4c1228dde8bd91017c6341953cdbabf18b5OUT 0x000859bf6357a8b09d3ed3797284831492c9d6470 BNB0.000479285
0x1e70ae6f83297fb5895a3410d2d0bbff560e417edc7c2c774a949e19cec0d92b0x672d8f42118609702021-10-17 20:48:1714 hrs 49 mins ago0x4740a4c1228dde8bd91017c6341953cdbabf18b5OUT 0x000859bf6357a8b09d3ed3797284831492c9d6470 BNB0.00047969
0x95e1b835aefa9f47a3626058a539603fd9bfe90712d863ad99fd7b474865c54d0x672d8f42118609562021-10-17 20:47:3514 hrs 49 mins ago0x4740a4c1228dde8bd91017c6341953cdbabf18b5OUT 0x000859bf6357a8b09d3ed3797284831492c9d6470 BNB0.00047848
0xd5f26a3cf19e0ceb3a31d796051411873ef4c2c8458c4ffcbd67a80032b77beb0x672d8f42118609312021-10-17 20:46:2014 hrs 51 mins ago0x4740a4c1228dde8bd91017c6341953cdbabf18b5OUT 0x000859bf6357a8b09d3ed3797284831492c9d6470 BNB0.000478075
0xf4927c9566a2feaff1592d8d97c9481920427348393b11245ddff9b5232115440x672d8f42118609232021-10-17 20:45:5614 hrs 51 mins ago0x4740a4c1228dde8bd91017c6341953cdbabf18b5OUT 0x000859bf6357a8b09d3ed3797284831492c9d6470 BNB0.00047862
0x73bf53be0244b0d8e2782e75d1e5f87c4fd0f9d473c85514c2e651237adb60b40x672d8f42118565542021-10-17 17:06:5318 hrs 30 mins ago0x4740a4c1228dde8bd91017c6341953cdbabf18b5OUT 0x000859bf6357a8b09d3ed3797284831492c9d6470 BNB0.00047868
[ Download CSV Export 
Latest 7 internal transactions
Parent Txn Hash Block From To Value
0xe392671437d637be6a54b6f1500947d1a6f9aa58fad981bb309338190f5f81a1118543922021-10-17 15:16:3020 hrs 20 mins ago 0xa3b81724638208faa03810b391dde879e5fb0c790x4740a4c1228dde8bd91017c6341953cdbabf18b50.002002088641766254 BNB
0x822e2f0ec8e15e8d18336af4b5b56337b4ab964ee38862f1f0924eb1784b6df1118486932021-10-17 10:27:571 day 1 hr ago PancakeSwap: Router v20x4740a4c1228dde8bd91017c6341953cdbabf18b50.001447313447520687 BNB
0x88164d67ca84eebbbb2ec64256ad40aa2c31c1bfe4b96d3e9c4a94d32e09b7c6116853812021-10-11 17:02:486 days 18 hrs ago PancakeSwap: Router v20x4740a4c1228dde8bd91017c6341953cdbabf18b50.013929303900735623 BNB
0x172f7f9304ce31295781bcc7339381fa7a6e426c75a73e84a53f52bdcf033563113680462021-09-30 15:11:5617 days 20 hrs ago PancakeSwap: Router v20x4740a4c1228dde8bd91017c6341953cdbabf18b50.391125374759090008 BNB
0x94a97c767bb74a7de2323a39182d6143b74f0439c0c2bf152db4320e44bba7d3112756692021-09-27 9:27:0721 days 2 hrs ago 0xbfbc891e6c707243bb1949a92a1dcbc9ba160de70x4740a4c1228dde8bd91017c6341953cdbabf18b50.002137076278198968 BNB
0x4f14c237f8f800f954a03d2b9b2726ccceda9cd190c7f639fff18c73b0263325112755642021-09-27 9:21:5221 days 2 hrs ago 0xbfbc891e6c707243bb1949a92a1dcbc9ba160de70x4740a4c1228dde8bd91017c6341953cdbabf18b50.000010749767009756 BNB
0x9fc0a0043ecca48c67656fc97acf073fd82607d04f6b9b509ddf7791be28002f112548752021-09-26 15:54:1421 days 19 hrs ago 0xa3b81724638208faa03810b391dde879e5fb0c790x4740a4c1228dde8bd91017c6341953cdbabf18b50.000003096173249748 BNB
[ Download CSV Export 
Loading

Contract Name:
0 BNB

Compiler Version
0

Optimization Enabled:
0 BNB

Other Settings:
-NA-
Block Transaction Gas Used Reward
Age Block Fee Address BC Fee Address Voting Power Jailed Incoming
Block Uncle Number Difficulty Gas Used Reward
Loading
Loading
Make sure to use the "Vote Down" button for any spammy posts, and the "Vote Up" for interesting conversations.